createdAt,value
2022-09-07T00:00:54.605Z,18.29
2022-09-07T00:03:23.562Z,18.31
2022-09-07T00:05:52.436Z,18.28
2022-09-07T00:08:21.985Z,18.28
2022-09-07T00:10:57.762Z,18.27
2022-09-07T00:13:26.472Z,18.23
2022-09-07T00:15:55.757Z,18.20
2022-09-07T00:18:23.458Z,18.19
2022-09-07T00:21:03.187Z,18.13
2022-09-07T00:23:32.268Z,18.13
2022-09-07T00:26:07.602Z,18.13
2022-09-07T00:28:36.034Z,18.13
2022-09-07T00:31:05.435Z,18.12
2022-09-07T00:33:32.790Z,18.05
2022-09-07T00:36:00.734Z,18.08
2022-09-07T00:38:29.774Z,18.08
2022-09-07T00:40:58.704Z,18.08
2022-09-07T00:43:36.848Z,18.07
2022-09-07T00:46:05.156Z,18.07
2022-09-07T00:48:59.155Z,18.03
2022-09-07T00:51:39.453Z,18.00
2022-09-07T00:54:09.252Z,17.99
2022-09-07T00:56:38.414Z,17.99
2022-09-07T00:59:07.142Z,17.99
2022-09-07T01:01:34.613Z,17.99
2022-09-07T01:04:02.538Z,17.94
2022-09-07T01:06:32.773Z,17.96
2022-09-07T01:09:01.507Z,17.94
2022-09-07T01:11:30.982Z,17.91
2022-09-07T01:13:58.721Z,17.92
2022-09-07T01:16:44.296Z,17.88
2022-09-07T01:19:26.954Z,17.85
2022-09-07T01:22:13.021Z,17.84
2022-09-07T01:24:46.305Z,17.80
2022-09-07T01:27:32.423Z,17.81
2022-09-07T01:30:03.498Z,17.77
2022-09-07T01:32:41.453Z,17.74
2022-09-07T01:35:16.622Z,17.70
2022-09-07T01:37:52.885Z,17.73
2022-09-07T01:40:25.420Z,17.73
2022-09-07T01:42:58.542Z,17.67
2022-09-07T01:45:31.346Z,17.68
2022-09-07T01:48:00.626Z,17.66
2022-09-07T01:50:31.062Z,17.65
2022-09-07T01:52:59.538Z,17.67
2022-09-07T01:55:35.989Z,17.65
2022-09-07T01:58:06.659Z,17.64
2022-09-07T02:00:34.840Z,17.64
2022-09-07T02:03:05.375Z,17.63
2022-09-07T02:05:40.582Z,17.60
2022-09-07T02:08:24.766Z,17.61
2022-09-07T02:10:55.549Z,17.64
2022-09-07T02:13:22.678Z,17.62
2022-09-07T02:15:53.556Z,17.60
2022-09-07T02:18:22.024Z,17.62
2022-09-07T02:20:51.238Z,17.61
2022-09-07T02:23:20.463Z,17.58
2022-09-07T02:25:52.646Z,17.60
2022-09-07T02:28:26.758Z,17.59
2022-09-07T02:30:54.596Z,17.57
2022-09-07T02:33:22.550Z,17.57
2022-09-07T02:35:49.906Z,17.58
2022-09-07T02:38:18.290Z,17.57
2022-09-07T02:40:51.126Z,17.62
2022-09-07T02:43:19.577Z,17.68
2022-09-07T02:46:01.813Z,17.61
2022-09-07T02:49:05.123Z,17.63
2022-09-07T02:51:36.951Z,17.68
2022-09-07T02:54:18.632Z,17.65
2022-09-07T02:56:51.217Z,17.62
2022-09-07T02:59:39.612Z,17.63
2022-09-07T03:02:14.269Z,17.63
2022-09-07T03:04:48.374Z,17.64
2022-09-07T03:07:17.761Z,17.61
2022-09-07T03:09:50.800Z,17.62
2022-09-07T03:12:17.754Z,17.61
2022-09-07T03:14:45.849Z,17.60
2022-09-07T03:17:13.771Z,17.61
2022-09-07T03:19:40.975Z,17.60
2022-09-07T03:22:09.235Z,17.56
2022-09-07T03:24:37.041Z,17.60
2022-09-07T03:27:05.216Z,17.54
2022-09-07T03:29:33.017Z,17.56
2022-09-07T03:32:02.853Z,17.54
2022-09-07T03:34:31.207Z,17.54
2022-09-07T03:37:00.895Z,17.52
2022-09-07T03:39:28.236Z,17.51
2022-09-07T03:41:55.362Z,17.52
2022-09-07T03:44:23.344Z,17.53
2022-09-07T03:46:50.665Z,17.57
2022-09-07T03:49:19.401Z,17.50
2022-09-07T03:51:47.656Z,17.52
2022-09-07T03:54:15.041Z,17.51
2022-09-07T03:56:42.047Z,17.53
2022-09-07T03:59:09.724Z,17.53
2022-09-07T04:01:37.553Z,17.51
2022-09-07T04:04:04.593Z,17.50
2022-09-07T04:06:34.445Z,17.51
2022-09-07T04:09:06.059Z,17.52
2022-09-07T04:11:34.049Z,17.48
2022-09-07T04:14:00.973Z,17.51
2022-09-07T04:16:29.422Z,17.52
2022-09-07T04:19:02.552Z,17.47
2022-09-07T04:21:33.410Z,17.47
2022-09-07T04:24:03.065Z,17.47
2022-09-07T04:26:31.090Z,17.50
2022-09-07T04:28:59.313Z,17.52
2022-09-07T04:31:27.388Z,17.48
2022-09-07T04:33:55.069Z,17.53
2022-09-07T04:36:22.697Z,17.61
2022-09-07T04:38:54.394Z,17.55
2022-09-07T04:41:21.992Z,17.65
2022-09-07T04:43:53.514Z,17.63
2022-09-07T04:46:22.157Z,17.62
2022-09-07T04:48:53.364Z,17.65
2022-09-07T04:51:23.471Z,17.71
2022-09-07T04:53:52.461Z,17.77
2022-09-07T04:56:20.519Z,17.87
2022-09-07T04:58:48.959Z,17.91
2022-09-07T05:01:18.255Z,18.03
2022-09-07T05:03:45.926Z,18.09
2022-09-07T05:06:14.200Z,18.04
2022-09-07T05:08:43.549Z,18.15
2022-09-07T05:11:13.028Z,18.18
2022-09-07T05:13:41.211Z,18.22
2022-09-07T05:16:10.742Z,18.36
2022-09-07T05:18:38.118Z,18.46
2022-09-07T05:21:16.092Z,18.41
2022-09-07T05:23:43.709Z,18.44
2022-09-07T05:27:35.998Z,18.46
2022-09-07T05:30:09.396Z,18.56
2022-09-07T05:32:37.780Z,18.78
2022-09-07T05:35:06.777Z,18.79
2022-09-07T05:37:38.713Z,18.91
2022-09-07T05:40:07.909Z,18.89
2022-09-07T05:42:38.228Z,19.04
2022-09-07T05:45:09.482Z,19.15
2022-09-07T05:47:38.681Z,19.33
2022-09-07T05:50:09.591Z,19.37
2022-09-07T05:52:36.892Z,19.64
2022-09-07T05:55:26.265Z,20.04
2022-09-07T05:57:52.219Z,21.30
2022-09-07T06:00:25.382Z,21.68
2022-09-07T06:02:53.103Z,22.61
2022-09-07T06:05:22.487Z,22.47
2022-09-07T06:07:49.672Z,22.79
2022-09-07T06:13:07.166Z,23.83
2022-09-07T06:15:35.713Z,23.97
2022-09-07T06:18:02.657Z,24.20
2022-09-07T06:20:29.735Z,24.69
2022-09-07T06:22:57.028Z,25.01
2022-09-07T06:25:23.919Z,25.20
2022-09-07T06:27:50.819Z,25.30
2022-09-07T06:30:18.935Z,25.03
2022-09-07T06:32:46.082Z,24.36
2022-09-07T06:35:14.020Z,24.62
2022-09-07T06:37:41.851Z,24.13
2022-09-07T06:40:10.608Z,24.35
2022-09-07T06:42:38.693Z,24.74
2022-09-07T06:45:06.669Z,25.00
2022-09-07T06:47:33.530Z,25.42
2022-09-07T06:50:02.637Z,25.40
2022-09-07T06:55:17.995Z,25.91
2022-09-07T06:57:45.449Z,25.96
2022-09-07T07:00:12.545Z,26.60
2022-09-07T07:02:39.458Z,25.92
2022-09-07T07:05:09.100Z,25.40
2022-09-07T07:07:36.046Z,25.33
2022-09-07T07:10:02.947Z,25.56
2022-09-07T07:14:57.227Z,25.63
2022-09-07T07:17:24.038Z,25.59
2022-09-07T07:19:53.256Z,25.61
2022-09-07T07:25:08.342Z,25.67
2022-09-07T07:27:35.680Z,25.57
2022-09-07T07:30:02.534Z,25.70
2022-09-07T07:32:31.287Z,25.63
2022-09-07T07:34:58.243Z,25.75
2022-09-07T07:37:28.216Z,25.90
2022-09-07T07:42:43.218Z,26.15
2022-09-07T07:47:58.292Z,26.43
2022-09-07T07:50:33.262Z,26.32
2022-09-07T07:55:47.964Z,26.65
2022-09-07T07:58:14.783Z,26.62
2022-09-07T08:00:54.249Z,26.61
2022-09-07T08:03:23.230Z,26.60
2022-09-07T08:05:50.333Z,26.60
2022-09-07T08:08:17.390Z,26.55
2022-09-07T08:10:46.222Z,26.47
2022-09-07T08:13:14.313Z,26.41
2022-09-07T08:15:44.652Z,26.27
2022-09-07T08:18:12.845Z,26.39
2022-09-07T08:20:41.155Z,26.44
2022-09-07T08:23:08.265Z,26.28
2022-09-07T08:25:35.715Z,26.30
2022-09-07T08:28:04.680Z,26.41
2022-09-07T08:30:45.881Z,26.51
2022-09-07T08:33:50.312Z,26.50
2022-09-07T08:36:23.256Z,26.49
2022-09-07T08:45:30.437Z,26.64
2022-09-07T08:48:10.880Z,26.98
2022-09-07T08:50:42.184Z,27.26
2022-09-07T08:53:17.872Z,27.34
2022-09-07T08:56:12.247Z,27.00
2022-09-07T08:58:50.140Z,26.67
2022-09-07T09:01:31.436Z,26.82
2022-09-07T09:04:16.010Z,26.93
2022-09-07T09:06:56.306Z,26.92
2022-09-07T09:09:55.375Z,27.02
2022-09-07T09:12:49.131Z,27.10
2022-09-07T09:18:54.634Z,27.18
2022-09-07T09:21:37.065Z,27.21
2022-09-07T09:24:36.849Z,27.15
2022-09-07T09:27:33.920Z,26.96
2022-09-07T09:30:26.785Z,26.96
2022-09-07T09:33:14.023Z,27.02
2022-09-07T09:38:47.305Z,26.78
2022-09-07T09:41:21.274Z,26.43
2022-09-07T09:44:54.577Z,26.46
2022-09-07T09:47:51.359Z,26.61
2022-09-07T09:53:43.414Z,26.58
2022-09-07T09:56:24.355Z,26.29
2022-09-07T10:06:04.312Z,25.82
2022-09-07T10:08:37.428Z,25.89
2022-09-07T10:12:06.685Z,25.92
2022-09-07T10:14:38.401Z,25.89
2022-09-07T10:17:27.747Z,25.77
2022-09-07T10:20:04.940Z,25.70
2022-09-07T10:22:37.659Z,25.67
2022-09-07T10:25:30.654Z,25.78
2022-09-07T10:28:06.466Z,25.91
2022-09-07T10:31:12.303Z,25.92
2022-09-07T10:36:57.217Z,25.84
2022-09-07T10:39:26.872Z,25.89
2022-09-07T10:42:07.384Z,25.87
2022-09-07T10:45:02.290Z,25.82
2022-09-07T10:47:52.609Z,25.77
2022-09-07T10:50:51.679Z,25.85
2022-09-07T10:54:41.092Z,25.88
2022-09-07T11:00:27.947Z,26.01
2022-09-07T11:03:28.663Z,26.10
2022-09-07T11:06:42.176Z,25.90
2022-09-07T11:09:33.044Z,25.99
2022-09-07T11:12:33.320Z,26.11
2022-09-07T11:19:35.196Z,26.15
2022-09-07T11:25:46.927Z,26.35
2022-09-07T11:28:29.109Z,26.36
2022-09-07T11:31:11.568Z,26.33
2022-09-07T11:34:24.242Z,26.28
2022-09-07T11:37:08.914Z,26.32
2022-09-07T11:40:06.941Z,26.33
2022-09-07T11:46:01.789Z,26.36
2022-09-07T11:48:59.908Z,26.37
2022-09-07T11:51:54.200Z,26.43
2022-09-07T11:54:44.826Z,26.48
2022-09-07T11:57:19.305Z,26.53
2022-09-07T12:00:07.126Z,26.51
2022-09-07T12:03:01.172Z,26.44
2022-09-07T12:09:00.267Z,26.34
2022-09-07T12:12:17.835Z,26.33
2022-09-07T12:15:50.348Z,26.24
2022-09-07T12:18:37.822Z,26.23
2022-09-07T12:21:45.466Z,26.17
2022-09-07T12:27:40.625Z,26.17
2022-09-07T12:30:20.305Z,26.18
2022-09-07T12:33:22.644Z,26.27
2022-09-07T12:36:40.587Z,26.35
2022-09-07T12:39:30.114Z,26.38
2022-09-07T12:42:33.040Z,26.41
2022-09-07T12:45:50.988Z,26.46
2022-09-07T12:48:52.568Z,26.43
2022-09-07T12:52:11.270Z,26.39
2022-09-07T12:55:28.269Z,26.38
2022-09-07T12:58:32.338Z,26.38
2022-09-07T13:01:35.574Z,26.42
2022-09-07T13:04:23.098Z,26.45
2022-09-07T13:07:06.353Z,26.46
2022-09-07T13:09:40.325Z,26.41
2022-09-07T13:15:35.942Z,26.38
2022-09-07T13:18:35.005Z,26.44
2022-09-07T13:21:13.501Z,26.51
2022-09-07T13:27:11.993Z,26.57
2022-09-07T13:29:43.106Z,26.57
2022-09-07T13:32:15.829Z,26.58
2022-09-07T13:34:49.496Z,26.60
2022-09-07T13:37:18.975Z,26.57
2022-09-07T13:39:49.606Z,26.56
2022-09-07T13:42:17.830Z,26.57
2022-09-07T13:44:52.179Z,26.59
2022-09-07T13:47:25.842Z,26.62
2022-09-07T13:50:00.814Z,26.66
2022-09-07T13:52:47.316Z,26.70
2022-09-07T13:55:32.977Z,26.73
2022-09-07T13:58:20.257Z,26.73
2022-09-07T14:00:54.950Z,26.71
2022-09-07T14:03:25.863Z,26.69
2022-09-07T14:06:11.065Z,26.76
2022-09-07T14:08:39.881Z,26.77
2022-09-07T14:11:23.954Z,26.77
2022-09-07T14:14:06.436Z,26.74
2022-09-07T14:16:33.933Z,26.71
2022-09-07T14:19:01.187Z,26.72
2022-09-07T14:21:28.269Z,26.74
2022-09-07T14:23:58.694Z,26.78
2022-09-07T14:26:26.610Z,26.78
2022-09-07T14:28:56.534Z,26.75
2022-09-07T14:31:24.506Z,26.76
2022-09-07T14:33:59.185Z,26.81
2022-09-07T14:36:48.242Z,26.76
2022-09-07T14:39:16.893Z,26.77
2022-09-07T14:41:44.342Z,26.82
2022-09-07T14:44:30.792Z,26.84
2022-09-07T14:46:59.833Z,26.82
2022-09-07T14:49:26.828Z,26.83
2022-09-07T14:51:54.395Z,26.84
2022-09-07T14:54:25.239Z,26.80
2022-09-07T14:57:02.442Z,26.78
2022-09-07T14:59:37.055Z,26.76
2022-09-07T15:02:24.165Z,26.75
2022-09-07T15:05:10.037Z,26.74
2022-09-07T15:07:41.035Z,26.77
2022-09-07T15:10:23.842Z,26.81
2022-09-07T15:12:54.774Z,26.83
2022-09-07T15:15:27.329Z,26.88
2022-09-07T15:17:55.230Z,26.88
2022-09-07T15:20:41.258Z,26.90
2022-09-07T15:23:10.817Z,26.84
2022-09-07T15:25:40.875Z,26.81
2022-09-07T15:28:08.167Z,26.84
2022-09-07T15:30:35.548Z,26.79
2022-09-07T15:33:04.326Z,26.77
2022-09-07T15:35:31.311Z,26.75
2022-09-07T15:38:02.351Z,26.71
2022-09-07T15:40:36.093Z,26.66
2022-09-07T15:43:13.671Z,26.63
2022-09-07T15:45:51.614Z,26.58
2022-09-07T15:48:20.999Z,26.53
2022-09-07T15:50:48.533Z,26.49
2022-09-07T15:56:04.268Z,26.41
2022-09-07T15:58:31.743Z,26.37
2022-09-07T16:03:55.333Z,26.25
2022-09-07T16:06:22.957Z,26.18
2022-09-07T16:08:53.238Z,26.14
2022-09-07T16:11:24.240Z,26.08
2022-09-07T16:14:02.039Z,26.02
2022-09-07T16:19:20.613Z,25.90
2022-09-07T16:21:48.012Z,25.85
2022-09-07T16:24:17.428Z,25.82
2022-09-07T16:26:45.238Z,25.77
2022-09-07T16:29:12.225Z,25.71
2022-09-07T16:32:43.930Z,25.65
2022-09-07T16:34:28.039Z,25.60
2022-09-07T16:36:57.914Z,25.54
2022-09-07T16:39:24.980Z,25.49
2022-09-07T16:41:52.623Z,25.44
2022-09-07T16:44:19.587Z,25.38
2022-09-07T16:46:46.554Z,25.33
2022-09-07T16:49:13.816Z,25.30
2022-09-07T16:51:40.703Z,25.25
2022-09-07T16:54:08.395Z,25.20
2022-09-07T16:56:39.226Z,25.16
2022-09-07T16:59:07.006Z,25.13
2022-09-07T17:01:34.726Z,25.08
2022-09-07T17:04:04.499Z,25.04
2022-09-07T17:06:35.438Z,24.98
2022-09-07T17:09:02.596Z,24.93
2022-09-07T17:11:30.882Z,24.87
2022-09-07T17:13:58.439Z,24.81
2022-09-07T17:16:30.036Z,24.78
2022-09-07T17:21:50.220Z,24.74
2022-09-07T17:24:17.240Z,24.72
2022-09-07T17:26:46.309Z,24.70
2022-09-07T17:29:13.566Z,24.65
2022-09-07T17:34:31.027Z,24.53
2022-09-07T17:36:57.901Z,24.47
2022-09-07T17:39:24.739Z,24.43
2022-09-07T17:41:53.091Z,24.36
2022-09-07T17:44:21.089Z,24.31
2022-09-07T17:46:47.936Z,24.25
2022-09-07T17:49:16.809Z,24.20
2022-09-07T17:51:44.576Z,24.13
2022-09-07T17:54:13.565Z,24.08
2022-09-07T17:56:41.267Z,24.03
2022-09-07T18:01:55.842Z,23.95
2022-09-07T18:04:23.241Z,23.91
2022-09-07T18:06:50.443Z,23.88
2022-09-07T18:09:17.762Z,23.87
2022-09-07T18:11:46.276Z,23.85
2022-09-07T18:14:14.825Z,23.85
2022-09-07T18:16:43.011Z,23.82
2022-09-07T18:19:12.663Z,23.81
2022-09-07T18:21:43.285Z,23.79
2022-09-07T18:24:13.623Z,23.77
2022-09-07T18:26:41.386Z,23.74
2022-09-07T18:29:25.946Z,23.70
2022-09-07T18:31:55.575Z,23.67
2022-09-07T18:34:22.861Z,23.63
2022-09-07T18:36:49.882Z,23.55
2022-09-07T18:39:16.996Z,23.47
2022-09-07T18:41:44.241Z,23.41
2022-09-07T18:46:58.427Z,23.38
2022-09-07T18:49:25.427Z,23.35
2022-09-07T18:54:43.591Z,23.24
2022-09-07T18:57:11.342Z,23.22
2022-09-07T18:59:38.465Z,23.17
2022-09-07T19:02:08.176Z,23.16
2022-09-07T19:07:47.489Z,23.14
2022-09-07T19:10:16.821Z,23.15
2022-09-07T19:12:46.762Z,23.12
2022-09-07T19:15:14.218Z,23.09
2022-09-07T19:17:41.107Z,23.09
2022-09-07T19:20:08.119Z,23.08
2022-09-07T19:22:35.504Z,23.06
2022-09-07T19:25:02.547Z,23.05
2022-09-07T19:27:32.879Z,23.02
2022-09-07T19:30:01.263Z,23.00
2022-09-07T19:32:28.473Z,22.96
2022-09-07T19:34:55.572Z,22.92
2022-09-07T19:37:26.220Z,22.87
2022-09-07T19:39:57.015Z,22.83
2022-09-07T19:42:25.042Z,22.79
2022-09-07T19:44:52.596Z,22.75
2022-09-07T19:47:19.475Z,22.71
2022-09-07T19:49:46.583Z,22.67
2022-09-07T19:52:13.435Z,22.64
2022-09-07T19:54:40.746Z,22.61
2022-09-07T19:57:07.819Z,22.54
2022-09-07T19:59:35.540Z,22.49
2022-09-07T20:02:02.469Z,22.42
2022-09-07T20:04:29.690Z,22.39
2022-09-07T20:06:57.041Z,22.37
2022-09-07T20:09:24.031Z,22.34
2022-09-07T20:11:53.541Z,22.30
2022-09-07T20:14:20.678Z,22.28
2022-09-07T20:16:47.583Z,22.24
2022-09-07T20:19:15.240Z,22.20
2022-09-07T20:21:42.557Z,22.15
2022-09-07T20:24:11.639Z,22.08
2022-09-07T20:26:39.078Z,22.02
2022-09-07T20:29:26.179Z,21.97
2022-09-07T20:31:54.118Z,21.92
2022-09-07T20:34:21.183Z,21.84
2022-09-07T20:36:52.012Z,21.80
2022-09-07T20:39:19.784Z,21.78
2022-09-07T20:41:47.069Z,21.73
2022-09-07T20:44:14.308Z,21.72
2022-09-07T20:47:05.970Z,21.67
2022-09-07T20:49:33.217Z,21.65
2022-09-07T20:52:00.549Z,21.62
2022-09-07T20:54:27.878Z,21.58
2022-09-07T20:56:54.731Z,21.56
2022-09-07T20:59:21.896Z,21.53
2022-09-07T21:01:49.514Z,21.53
2022-09-07T21:04:16.401Z,21.52
2022-09-07T21:06:43.497Z,21.48
2022-09-07T21:09:10.724Z,21.46
2022-09-07T21:11:37.491Z,21.46
2022-09-07T21:14:07.404Z,21.45
2022-09-07T21:16:35.132Z,21.46
2022-09-07T21:19:02.814Z,21.42
2022-09-07T21:21:36.590Z,21.33
2022-09-07T21:24:05.875Z,21.25
2022-09-07T21:26:32.835Z,21.20
2022-09-07T21:29:00.822Z,21.17
2022-09-07T21:31:29.508Z,21.15
2022-09-07T21:33:57.568Z,21.15
2022-09-07T21:36:24.858Z,21.15
2022-09-07T21:38:52.264Z,21.14
2022-09-07T21:41:20.050Z,21.11
2022-09-07T21:43:46.830Z,21.12
2022-09-07T21:46:15.821Z,21.12
2022-09-07T21:48:42.837Z,21.08
2022-09-07T21:51:10.659Z,21.07
2022-09-07T21:53:38.916Z,21.09
2022-09-07T21:56:13.243Z,21.10
2022-09-07T21:58:40.685Z,21.10
2022-09-07T22:01:17.028Z,21.09
2022-09-07T22:03:45.491Z,21.08
2022-09-07T22:06:12.449Z,21.09
2022-09-07T22:08:40.347Z,21.08
2022-09-07T22:11:12.450Z,21.08
2022-09-07T22:13:39.514Z,21.08
2022-09-07T22:16:06.901Z,21.07
2022-09-07T22:18:34.666Z,21.03
2022-09-07T22:21:02.591Z,20.99
2022-09-07T22:23:30.173Z,20.98
2022-09-07T22:25:57.372Z,20.96
2022-09-07T22:28:24.148Z,20.95
2022-09-07T22:30:51.067Z,20.94
2022-09-07T22:33:18.199Z,20.91
2022-09-07T22:35:45.405Z,20.89
2022-09-07T22:38:12.262Z,20.87
2022-09-07T22:40:39.345Z,20.87
2022-09-07T22:43:07.072Z,20.85
2022-09-07T22:45:33.898Z,20.78
2022-09-07T22:48:01.623Z,20.75
2022-09-07T22:50:31.897Z,20.70
2022-09-07T22:52:58.930Z,20.69
2022-09-07T22:55:25.979Z,20.65
2022-09-07T22:57:52.726Z,20.62
2022-09-07T23:00:19.530Z,20.57
2022-09-07T23:02:47.213Z,20.52
2022-09-07T23:05:14.510Z,20.44
2022-09-07T23:07:41.330Z,20.36
2022-09-07T23:10:09.194Z,20.30
2022-09-07T23:12:37.929Z,20.23
2022-09-07T23:15:05.208Z,20.24
2022-09-07T23:17:32.379Z,20.23
2022-09-07T23:19:59.218Z,20.17
2022-09-07T23:22:25.961Z,20.14
2022-09-07T23:24:53.042Z,20.10
2022-09-07T23:27:19.839Z,20.07
2022-09-07T23:29:47.272Z,20.05
2022-09-07T23:32:14.678Z,19.99
2022-09-07T23:34:41.437Z,19.99
2022-09-07T23:37:08.278Z,20.00
2022-09-07T23:39:35.393Z,19.99
2022-09-07T23:42:02.230Z,19.98
2022-09-07T23:44:29.306Z,19.95
2022-09-07T23:46:56.979Z,19.97
2022-09-07T23:49:24.513Z,19.95
2022-09-07T23:51:52.633Z,19.92
2022-09-07T23:54:19.832Z,19.94
2022-09-07T23:56:53.667Z,19.92
2022-09-07T23:59:27.151Z,19.91
